sensor_id;sensor_type;location;lat;lon;timestamp;P1;durP1;ratioP1;P2;durP2;ratioP2
32613;SDS011;19031;51.400;6.770;2023-05-17T00:02:00;10.48;;;1.48;;
32613;SDS011;19031;51.400;6.770;2023-05-17T00:04:26;3.22;;;1.67;;
32613;SDS011;19031;51.400;6.770;2023-05-17T00:06:52;4.10;;;1.42;;
32613;SDS011;19031;51.400;6.770;2023-05-17T00:09:17;5.03;;;1.65;;
32613;SDS011;19031;51.400;6.770;2023-05-17T00:11:43;10.25;;;1.67;;
32613;SDS011;19031;51.400;6.770;2023-05-17T00:14:09;3.97;;;1.75;;
32613;SDS011;19031;51.400;6.770;2023-05-17T00:16:35;3.78;;;1.02;;
32613;SDS011;19031;51.400;6.770;2023-05-17T00:19:01;4.65;;;1.38;;
32613;SDS011;19031;51.400;6.770;2023-05-17T00:21:26;2.95;;;1.40;;
32613;SDS011;19031;51.400;6.770;2023-05-17T00:23:52;2.88;;;1.35;;
32613;SDS011;19031;51.400;6.770;2023-05-17T00:26:17;6.50;;;1.70;;
32613;SDS011;19031;51.400;6.770;2023-05-17T00:28:44;5.88;;;2.03;;
32613;SDS011;19031;51.400;6.770;2023-05-17T00:31:09;6.05;;;1.95;;
32613;SDS011;19031;51.400;6.770;2023-05-17T00:33:35;2.78;;;1.52;;
32613;SDS011;19031;51.400;6.770;2023-05-17T00:36:00;5.70;;;1.80;;
32613;SDS011;19031;51.400;6.770;2023-05-17T00:38:26;2.97;;;1.50;;
32613;SDS011;19031;51.400;6.770;2023-05-17T00:40:51;5.15;;;1.55;;
32613;SDS011;19031;51.400;6.770;2023-05-17T00:43:18;7.13;;;1.38;;
32613;SDS011;19031;51.400;6.770;2023-05-17T00:45:43;4.57;;;1.35;;
32613;SDS011;19031;51.400;6.770;2023-05-17T00:48:09;5.57;;;1.33;;
32613;SDS011;19031;51.400;6.770;2023-05-17T00:50:35;4.05;;;1.50;;
32613;SDS011;19031;51.400;6.770;2023-05-17T00:53:01;2.78;;;1.48;;
32613;SDS011;19031;51.400;6.770;2023-05-17T00:55:26;5.97;;;1.63;;
32613;SDS011;19031;51.400;6.770;2023-05-17T00:57:53;5.50;;;1.95;;
32613;SDS011;19031;51.400;6.770;2023-05-17T01:00:18;5.93;;;1.65;;
32613;SDS011;19031;51.400;6.770;2023-05-17T01:02:44;2.97;;;1.48;;
32613;SDS011;19031;51.400;6.770;2023-05-17T01:05:12;3.80;;;1.88;;
32613;SDS011;19031;51.400;6.770;2023-05-17T01:07:38;7.88;;;1.90;;
32613;SDS011;19031;51.400;6.770;2023-05-17T01:10:04;4.53;;;1.63;;
32613;SDS011;19031;51.400;6.770;2023-05-17T01:12:34;4.43;;;1.42;;
32613;SDS011;19031;51.400;6.770;2023-05-17T01:20:35;3.15;;;1.30;;
32613;SDS011;19031;51.400;6.770;2023-05-17T01:29:21;2.08;;;1.25;;
32613;SDS011;19031;51.400;6.770;2023-05-17T01:31:52;6.78;;;1.55;;
32613;SDS011;19031;51.400;6.770;2023-05-17T01:34:26;6.28;;;1.63;;
32613;SDS011;19031;51.400;6.770;2023-05-17T01:36:52;2.90;;;1.55;;
32613;SDS011;19031;51.400;6.770;2023-05-17T01:39:18;8.65;;;2.13;;
32613;SDS011;19031;51.400;6.770;2023-05-17T01:41:45;3.70;;;1.75;;
32613;SDS011;19031;51.400;6.770;2023-05-17T01:47:07;3.63;;;1.67;;
32613;SDS011;19031;51.400;6.770;2023-05-17T01:49:37;5.50;;;1.70;;
32613;SDS011;19031;51.400;6.770;2023-05-17T01:52:16;6.63;;;1.63;;
32613;SDS011;19031;51.400;6.770;2023-05-17T01:57:23;3.30;;;1.63;;
32613;SDS011;19031;51.400;6.770;2023-05-17T01:59:53;8.30;;;2.08;;
32613;SDS011;19031;51.400;6.770;2023-05-17T02:02:22;6.70;;;2.00;;
32613;SDS011;19031;51.400;6.770;2023-05-17T02:04:48;15.32;;;3.15;;
32613;SDS011;19031;51.400;6.770;2023-05-17T02:07:15;3.88;;;1.80;;
32613;SDS011;19031;51.400;6.770;2023-05-17T02:09:41;3.20;;;1.60;;
32613;SDS011;19031;51.400;6.770;2023-05-17T02:12:09;8.98;;;2.85;;
32613;SDS011;19031;51.400;6.770;2023-05-17T02:14:38;5.57;;;2.47;;
32613;SDS011;19031;51.400;6.770;2023-05-17T02:17:03;7.22;;;2.22;;
32613;SDS011;19031;51.400;6.770;2023-05-17T02:19:30;6.93;;;2.15;;
32613;SDS011;19031;51.400;6.770;2023-05-17T02:21:56;4.22;;;2.00;;
32613;SDS011;19031;51.400;6.770;2023-05-17T02:24:21;5.13;;;1.90;;
32613;SDS011;19031;51.400;6.770;2023-05-17T02:26:47;6.03;;;1.67;;
32613;SDS011;19031;51.400;6.770;2023-05-17T02:29:56;12.70;;;2.10;;
32613;SDS011;19031;51.400;6.770;2023-05-17T02:32:25;4.80;;;1.80;;
32613;SDS011;19031;51.400;6.770;2023-05-17T02:34:52;11.07;;;2.13;;
32613;SDS011;19031;51.400;6.770;2023-05-17T02:37:18;3.58;;;1.85;;
32613;SDS011;19031;51.400;6.770;2023-05-17T02:39:44;3.17;;;1.70;;
32613;SDS011;19031;51.400;6.770;2023-05-17T02:45:11;5.65;;;1.90;;
32613;SDS011;19031;51.400;6.770;2023-05-17T02:47:54;2.58;;;1.60;;
32613;SDS011;19031;51.400;6.770;2023-05-17T02:50:20;4.47;;;1.70;;
32613;SDS011;19031;51.400;6.770;2023-05-17T02:52:46;5.38;;;1.65;;
32613;SDS011;19031;51.400;6.770;2023-05-17T02:55:11;5.68;;;1.63;;
32613;SDS011;19031;51.400;6.770;2023-05-17T02:57:37;7.65;;;2.45;;
32613;SDS011;19031;51.400;6.770;2023-05-17T03:00:03;6.28;;;1.90;;
32613;SDS011;19031;51.400;6.770;2023-05-17T03:02:30;6.30;;;1.92;;
32613;SDS011;19031;51.400;6.770;2023-05-17T03:04:56;4.45;;;2.28;;
32613;SDS011;19031;51.400;6.770;2023-05-17T03:07:21;5.10;;;2.60;;
32613;SDS011;19031;51.400;6.770;2023-05-17T03:09:47;8.50;;;2.38;;
32613;SDS011;19031;51.400;6.770;2023-05-17T03:12:29;7.80;;;1.73;;
32613;SDS011;19031;51.400;6.770;2023-05-17T03:14:54;6.95;;;2.88;;
32613;SDS011;19031;51.400;6.770;2023-05-17T03:17:20;6.78;;;3.03;;
32613;SDS011;19031;51.400;6.770;2023-05-17T03:19:45;6.72;;;2.85;;
32613;SDS011;19031;51.400;6.770;2023-05-17T03:22:11;5.78;;;2.10;;
32613;SDS011;19031;51.400;6.770;2023-05-17T03:24:37;5.10;;;2.47;;
32613;SDS011;19031;51.400;6.770;2023-05-17T03:27:02;6.97;;;2.25;;
32613;SDS011;19031;51.400;6.770;2023-05-17T03:29:28;9.18;;;2.22;;
32613;SDS011;19031;51.400;6.770;2023-05-17T03:31:54;11.57;;;2.78;;
32613;SDS011;19031;51.400;6.770;2023-05-17T03:34:20;7.40;;;2.25;;
32613;SDS011;19031;51.400;6.770;2023-05-17T03:36:45;11.48;;;3.25;;
32613;SDS011;19031;51.400;6.770;2023-05-17T03:39:11;8.63;;;2.63;;
32613;SDS011;19031;51.400;6.770;2023-05-17T03:41:36;9.63;;;2.47;;
32613;SDS011;19031;51.400;6.770;2023-05-17T03:44:02;9.20;;;2.80;;
32613;SDS011;19031;51.400;6.770;2023-05-17T03:46:28;11.60;;;2.53;;
32613;SDS011;19031;51.400;6.770;2023-05-17T03:48:53;4.85;;;2.15;;
32613;SDS011;19031;51.400;6.770;2023-05-17T03:51:22;4.90;;;2.42;;
32613;SDS011;19031;51.400;6.770;2023-05-17T03:53:49;9.02;;;2.42;;
32613;SDS011;19031;51.400;6.770;2023-05-17T03:56:21;7.45;;;2.72;;
32613;SDS011;19031;51.400;6.770;2023-05-17T03:58:46;6.03;;;2.97;;
32613;SDS011;19031;51.400;6.770;2023-05-17T04:01:12;7.75;;;2.58;;
32613;SDS011;19031;51.400;6.770;2023-05-17T04:03:37;6.22;;;2.45;;
32613;SDS011;19031;51.400;6.770;2023-05-17T04:06:04;7.75;;;2.75;;
32613;SDS011;19031;51.400;6.770;2023-05-17T04:08:33;6.63;;;3.28;;
32613;SDS011;19031;51.400;6.770;2023-05-17T04:10:59;4.20;;;2.05;;
32613;SDS011;19031;51.400;6.770;2023-05-17T04:13:33;6.75;;;2.58;;
32613;SDS011;19031;51.400;6.770;2023-05-17T04:16:00;9.60;;;2.53;;
32613;SDS011;19031;51.400;6.770;2023-05-17T04:18:25;5.65;;;2.80;;
32613;SDS011;19031;51.400;6.770;2023-05-17T04:20:51;9.25;;;2.83;;
32613;SDS011;19031;51.400;6.770;2023-05-17T04:23:19;6.63;;;2.20;;
32613;SDS011;19031;51.400;6.770;2023-05-17T04:25:45;6.05;;;2.22;;
32613;SDS011;19031;51.400;6.770;2023-05-17T04:28:10;3.90;;;2.10;;
32613;SDS011;19031;51.400;6.770;2023-05-17T04:30:40;7.63;;;2.65;;
32613;SDS011;19031;51.400;6.770;2023-05-17T04:33:06;6.90;;;3.03;;
32613;SDS011;19031;51.400;6.770;2023-05-17T04:35:32;14.65;;;3.42;;
32613;SDS011;19031;51.400;6.770;2023-05-17T04:37:57;8.52;;;3.25;;
32613;SDS011;19031;51.400;6.770;2023-05-17T04:40:23;8.70;;;2.75;;
32613;SDS011;19031;51.400;6.770;2023-05-17T04:42:49;11.05;;;3.45;;
32613;SDS011;19031;51.400;6.770;2023-05-17T04:45:14;6.38;;;2.80;;
32613;SDS011;19031;51.400;6.770;2023-05-17T04:47:41;8.55;;;3.55;;
32613;SDS011;19031;51.400;6.770;2023-05-17T04:50:07;13.90;;;3.53;;
32613;SDS011;19031;51.400;6.770;2023-05-17T04:52:33;5.00;;;3.20;;
32613;SDS011;19031;51.400;6.770;2023-05-17T04:54:58;12.82;;;3.88;;
32613;SDS011;19031;51.400;6.770;2023-05-17T04:57:24;10.00;;;3.90;;
32613;SDS011;19031;51.400;6.770;2023-05-17T04:59:49;10.10;;;4.55;;
32613;SDS011;19031;51.400;6.770;2023-05-17T05:02:15;8.07;;;3.85;;
32613;SDS011;19031;51.400;6.770;2023-05-17T05:04:41;30.67;;;5.28;;
32613;SDS011;19031;51.400;6.770;2023-05-17T05:07:06;10.82;;;4.63;;
32613;SDS011;19031;51.400;6.770;2023-05-17T05:09:32;14.13;;;3.95;;
32613;SDS011;19031;51.400;6.770;2023-05-17T05:11:57;12.07;;;4.05;;
32613;SDS011;19031;51.400;6.770;2023-05-17T05:14:23;13.48;;;4.20;;
32613;SDS011;19031;51.400;6.770;2023-05-17T05:16:48;14.77;;;4.78;;
32613;SDS011;19031;51.400;6.770;2023-05-17T05:19:14;13.90;;;4.40;;
32613;SDS011;19031;51.400;6.770;2023-05-17T05:21:40;15.85;;;4.88;;
32613;SDS011;19031;51.400;6.770;2023-05-17T05:24:09;11.20;;;5.30;;
32613;SDS011;19031;51.400;6.770;2023-05-17T05:26:34;9.02;;;4.53;;
32613;SDS011;19031;51.400;6.770;2023-05-17T05:29:00;14.30;;;4.63;;
32613;SDS011;19031;51.400;6.770;2023-05-17T05:31:25;19.48;;;4.47;;
32613;SDS011;19031;51.400;6.770;2023-05-17T05:33:51;15.00;;;4.85;;
32613;SDS011;19031;51.400;6.770;2023-05-17T05:36:17;9.23;;;4.18;;
32613;SDS011;19031;51.400;6.770;2023-05-17T05:38:42;14.20;;;4.07;;
32613;SDS011;19031;51.400;6.770;2023-05-17T05:41:08;13.02;;;3.88;;
32613;SDS011;19031;51.400;6.770;2023-05-17T05:43:33;11.23;;;3.70;;
32613;SDS011;19031;51.400;6.770;2023-05-17T05:46:01;15.20;;;3.80;;
32613;SDS011;19031;51.400;6.770;2023-05-17T05:48:27;16.23;;;3.17;;
32613;SDS011;19031;51.400;6.770;2023-05-17T05:50:52;6.35;;;1.50;;
32613;SDS011;19031;51.400;6.770;2023-05-17T05:53:18;8.45;;;1.88;;
32613;SDS011;19031;51.400;6.770;2023-05-17T05:55:43;8.60;;;1.38;;
32613;SDS011;19031;51.400;6.770;2023-05-17T05:58:12;9.48;;;2.42;;
32613;SDS011;19031;51.400;6.770;2023-05-17T06:00:37;8.35;;;1.92;;
32613;SDS011;19031;51.400;6.770;2023-05-17T06:03:03;7.85;;;1.42;;
32613;SDS011;19031;51.400;6.770;2023-05-17T06:05:30;6.38;;;1.45;;
32613;SDS011;19031;51.400;6.770;2023-05-17T06:07:55;5.00;;;1.20;;
32613;SDS011;19031;51.400;6.770;2023-05-17T06:10:21;9.88;;;1.60;;
32613;SDS011;19031;51.400;6.770;2023-05-17T06:12:47;18.20;;;2.00;;
32613;SDS011;19031;51.400;6.770;2023-05-17T06:15:13;12.30;;;2.15;;
32613;SDS011;19031;51.400;6.770;2023-05-17T06:17:41;3.75;;;1.27;;
32613;SDS011;19031;51.400;6.770;2023-05-17T06:20:07;10.45;;;1.85;;
32613;SDS011;19031;51.400;6.770;2023-05-17T06:22:33;8.18;;;1.45;;
32613;SDS011;19031;51.400;6.770;2023-05-17T06:24:59;5.57;;;1.80;;
32613;SDS011;19031;51.400;6.770;2023-05-17T06:27:25;5.28;;;1.20;;
32613;SDS011;19031;51.400;6.770;2023-05-17T06:29:50;4.85;;;1.15;;
32613;SDS011;19031;51.400;6.770;2023-05-17T06:32:19;8.00;;;1.42;;
32613;SDS011;19031;51.400;6.770;2023-05-17T06:34:45;13.32;;;1.30;;
32613;SDS011;19031;51.400;6.770;2023-05-17T06:37:16;6.00;;;1.10;;
32613;SDS011;19031;51.400;6.770;2023-05-17T06:39:42;11.82;;;1.48;;
32613;SDS011;19031;51.400;6.770;2023-05-17T06:42:07;6.80;;;1.25;;
32613;SDS011;19031;51.400;6.770;2023-05-17T06:44:33;17.88;;;4.90;;
32613;SDS011;19031;51.400;6.770;2023-05-17T06:47:08;10.60;;;1.40;;
32613;SDS011;19031;51.400;6.770;2023-05-17T06:49:34;5.47;;;1.30;;
32613;SDS011;19031;51.400;6.770;2023-05-17T06:52:03;5.63;;;1.25;;
32613;SDS011;19031;51.400;6.770;2023-05-17T06:54:29;8.57;;;1.67;;
32613;SDS011;19031;51.400;6.770;2023-05-17T06:57:01;5.13;;;0.82;;
32613;SDS011;19031;51.400;6.770;2023-05-17T06:59:40;4.20;;;1.83;;
32613;SDS011;19031;51.400;6.770;2023-05-17T07:02:05;6.65;;;1.40;;
32613;SDS011;19031;51.400;6.770;2023-05-17T07:04:31;7.20;;;1.30;;
32613;SDS011;19031;51.400;6.770;2023-05-17T07:06:57;11.90;;;1.80;;
32613;SDS011;19031;51.400;6.770;2023-05-17T07:09:25;6.70;;;1.33;;
32613;SDS011;19031;51.400;6.770;2023-05-17T07:11:51;4.40;;;1.15;;
32613;SDS011;19031;51.400;6.770;2023-05-17T07:14:17;14.02;;;2.85;;
32613;SDS011;19031;51.400;6.770;2023-05-17T07:16:42;5.95;;;1.40;;
32613;SDS011;19031;51.400;6.770;2023-05-17T07:19:15;8.95;;;1.10;;
32613;SDS011;19031;51.400;6.770;2023-05-17T07:21:41;7.70;;;1.80;;
32613;SDS011;19031;51.400;6.770;2023-05-17T07:24:07;6.63;;;1.00;;
32613;SDS011;19031;51.400;6.770;2023-05-17T07:26:33;9.35;;;2.20;;
32613;SDS011;19031;51.400;6.770;2023-05-17T07:28:59;16.40;;;4.32;;
32613;SDS011;19031;51.400;6.770;2023-05-17T07:31:25;5.13;;;1.13;;
32613;SDS011;19031;51.400;6.770;2023-05-17T07:33:53;11.80;;;1.52;;
32613;SDS011;19031;51.400;6.770;2023-05-17T07:36:19;5.43;;;1.63;;
32613;SDS011;19031;51.400;6.770;2023-05-17T07:38:45;9.13;;;1.52;;
32613;SDS011;19031;51.400;6.770;2023-05-17T07:41:10;10.38;;;1.13;;
32613;SDS011;19031;51.400;6.770;2023-05-17T07:43:41;11.48;;;3.10;;
32613;SDS011;19031;51.400;6.770;2023-05-17T07:46:06;10.52;;;1.33;;
32613;SDS011;19031;51.400;6.770;2023-05-17T07:48:35;7.50;;;1.20;;
32613;SDS011;19031;51.400;6.770;2023-05-17T07:51:01;4.20;;;2.03;;
32613;SDS011;19031;51.400;6.770;2023-05-17T07:53:26;9.13;;;1.08;;
32613;SDS011;19031;51.400;6.770;2023-05-17T07:55:52;5.50;;;0.95;;
32613;SDS011;19031;51.400;6.770;2023-05-17T07:58:20;8.07;;;1.38;;
32613;SDS011;19031;51.400;6.770;2023-05-17T08:00:46;11.05;;;1.05;;
32613;SDS011;19031;51.400;6.770;2023-05-17T08:03:14;7.85;;;1.38;;
32613;SDS011;19031;51.400;6.770;2023-05-17T08:05:40;12.75;;;2.33;;
32613;SDS011;19031;51.400;6.770;2023-05-17T08:08:11;17.20;;;1.73;;
32613;SDS011;19031;51.400;6.770;2023-05-17T08:10:37;3.58;;;1.25;;
32613;SDS011;19031;51.400;6.770;2023-05-17T08:13:09;11.65;;;0.85;;
32613;SDS011;19031;51.400;6.770;2023-05-17T08:15:43;3.70;;;1.05;;
32613;SDS011;19031;51.400;6.770;2023-05-17T08:18:12;5.15;;;0.82;;
32613;SDS011;19031;51.400;6.770;2023-05-17T08:20:41;4.38;;;0.60;;
32613;SDS011;19031;51.400;6.770;2023-05-17T08:23:07;5.43;;;1.20;;
32613;SDS011;19031;51.400;6.770;2023-05-17T08:25:32;4.72;;;1.08;;
32613;SDS011;19031;51.400;6.770;2023-05-17T08:27:58;6.20;;;1.27;;
32613;SDS011;19031;51.400;6.770;2023-05-17T08:30:23;3.85;;;0.85;;
32613;SDS011;19031;51.400;6.770;2023-05-17T08:32:49;7.57;;;1.08;;
32613;SDS011;19031;51.400;6.770;2023-05-17T08:35:14;3.92;;;0.80;;
32613;SDS011;19031;51.400;6.770;2023-05-17T08:37:43;6.47;;;1.08;;
32613;SDS011;19031;51.400;6.770;2023-05-17T08:40:09;5.50;;;0.95;;
32613;SDS011;19031;51.400;6.770;2023-05-17T08:42:41;6.47;;;1.08;;
32613;SDS011;19031;51.400;6.770;2023-05-17T08:45:12;20.83;;;4.30;;
32613;SDS011;19031;51.400;6.770;2023-05-17T08:47:41;6.90;;;1.23;;
32613;SDS011;19031;51.400;6.770;2023-05-17T08:50:33;6.20;;;1.17;;
32613;SDS011;19031;51.400;6.770;2023-05-17T08:53:11;10.43;;;1.20;;
32613;SDS011;19031;51.400;6.770;2023-05-17T08:55:46;5.07;;;1.23;;
32613;SDS011;19031;51.400;6.770;2023-05-17T08:58:27;5.13;;;0.93;;
32613;SDS011;19031;51.400;6.770;2023-05-17T09:03:56;6.25;;;1.08;;
32613;SDS011;19031;51.400;6.770;2023-05-17T09:06:48;12.00;;;1.17;;
32613;SDS011;19031;51.400;6.770;2023-05-17T09:09:24;7.47;;;1.20;;
32613;SDS011;19031;51.400;6.770;2023-05-17T09:12:00;9.75;;;0.90;;
32613;SDS011;19031;51.400;6.770;2023-05-17T09:14:31;2.40;;;1.17;;
32613;SDS011;19031;51.400;6.770;2023-05-17T09:16:59;6.63;;;1.05;;
32613;SDS011;19031;51.400;6.770;2023-05-17T09:19:25;5.25;;;0.95;;
32613;SDS011;19031;51.400;6.770;2023-05-17T09:21:52;8.13;;;1.17;;
32613;SDS011;19031;51.400;6.770;2023-05-17T09:24:25;4.80;;;1.05;;
32613;SDS011;19031;51.400;6.770;2023-05-17T09:27:00;10.48;;;1.58;;
32613;SDS011;19031;51.400;6.770;2023-05-17T09:29:29;5.32;;;0.93;;
32613;SDS011;19031;51.400;6.770;2023-05-17T09:31:56;5.40;;;0.93;;
32613;SDS011;19031;51.400;6.770;2023-05-17T09:34:36;4.53;;;0.77;;
32613;SDS011;19031;51.400;6.770;2023-05-17T09:37:04;5.63;;;1.00;;
32613;SDS011;19031;51.400;6.770;2023-05-17T09:39:30;7.20;;;1.10;;
32613;SDS011;19031;51.400;6.770;2023-05-17T09:41:56;4.80;;;1.08;;
32613;SDS011;19031;51.400;6.770;2023-05-17T09:44:23;8.48;;;1.13;;
32613;SDS011;19031;51.400;6.770;2023-05-17T09:46:49;3.30;;;0.65;;
32613;SDS011;19031;51.400;6.770;2023-05-17T09:49:15;4.18;;;0.73;;
32613;SDS011;19031;51.400;6.770;2023-05-17T09:51:46;2.47;;;0.95;;
32613;SDS011;19031;51.400;6.770;2023-05-17T09:54:12;8.02;;;0.88;;
32613;SDS011;19031;51.400;6.770;2023-05-17T09:56:38;3.50;;;0.82;;
32613;SDS011;19031;51.400;6.770;2023-05-17T09:59:09;7.28;;;0.98;;
32613;SDS011;19031;51.400;6.770;2023-05-17T10:01:41;4.10;;;0.85;;
32613;SDS011;19031;51.400;6.770;2023-05-17T10:04:11;3.05;;;0.57;;
32613;SDS011;19031;51.400;6.770;2023-05-17T10:06:38;3.80;;;1.15;;
32613;SDS011;19031;51.400;6.770;2023-05-17T10:09:05;3.83;;;0.77;;
32613;SDS011;19031;51.400;6.770;2023-05-17T10:11:37;4.90;;;0.88;;
32613;SDS011;19031;51.400;6.770;2023-05-17T10:14:19;3.83;;;0.95;;
32613;SDS011;19031;51.400;6.770;2023-05-17T10:16:49;3.17;;;0.70;;
32613;SDS011;19031;51.400;6.770;2023-05-17T10:19:19;4.32;;;0.77;;
32613;SDS011;19031;51.400;6.770;2023-05-17T10:21:54;3.97;;;0.75;;
32613;SDS011;19031;51.400;6.770;2023-05-17T10:24:28;2.40;;;1.05;;
32613;SDS011;19031;51.400;6.770;2023-05-17T10:26:58;10.00;;;1.10;;
32613;SDS011;19031;51.400;6.770;2023-05-17T10:29:24;3.60;;;0.60;;
32613;SDS011;19031;51.400;6.770;2023-05-17T10:32:03;5.40;;;1.10;;
32613;SDS011;19031;51.400;6.770;2023-05-17T10:34:34;4.95;;;0.95;;
32613;SDS011;19031;51.400;6.770;2023-05-17T10:37:03;5.53;;;1.10;;
32613;SDS011;19031;51.400;6.770;2023-05-17T10:39:30;6.55;;;0.95;;
32613;SDS011;19031;51.400;6.770;2023-05-17T10:42:11;3.50;;;0.85;;
32613;SDS011;19031;51.400;6.770;2023-05-17T10:44:43;3.75;;;0.90;;
32613;SDS011;19031;51.400;6.770;2023-05-17T10:47:08;4.25;;;1.20;;
32613;SDS011;19031;51.400;6.770;2023-05-17T10:49:36;4.20;;;0.98;;
32613;SDS011;19031;51.400;6.770;2023-05-17T10:52:10;2.85;;;1.20;;
32613;SDS011;19031;51.400;6.770;2023-05-17T10:54:46;4.60;;;1.10;;
32613;SDS011;19031;51.400;6.770;2023-05-17T10:57:33;4.80;;;0.80;;
32613;SDS011;19031;51.400;6.770;2023-05-17T11:00:05;2.30;;;0.52;;
32613;SDS011;19031;51.400;6.770;2023-05-17T11:02:43;4.53;;;0.90;;
32613;SDS011;19031;51.400;6.770;2023-05-17T11:05:21;4.80;;;0.70;;
32613;SDS011;19031;51.400;6.770;2023-05-17T11:07:51;4.07;;;0.93;;
32613;SDS011;19031;51.400;6.770;2023-05-17T11:10:35;2.83;;;0.68;;
32613;SDS011;19031;51.400;6.770;2023-05-17T11:13:10;3.47;;;0.73;;
32613;SDS011;19031;51.400;6.770;2023-05-17T11:16:01;2.00;;;0.70;;
32613;SDS011;19031;51.400;6.770;2023-05-17T11:18:44;3.22;;;0.45;;
32613;SDS011;19031;51.400;6.770;2023-05-17T11:21:12;6.32;;;1.13;;
32613;SDS011;19031;51.400;6.770;2023-05-17T11:23:46;8.02;;;1.23;;
32613;SDS011;19031;51.400;6.770;2023-05-17T11:26:18;2.95;;;0.70;;
32613;SDS011;19031;51.400;6.770;2023-05-17T11:28:47;4.60;;;1.35;;
32613;SDS011;19031;51.400;6.770;2023-05-17T11:31:30;8.52;;;1.02;;
32613;SDS011;19031;51.400;6.770;2023-05-17T11:36:47;5.57;;;1.15;;
32613;SDS011;19031;51.400;6.770;2023-05-17T11:39:21;6.32;;;1.08;;
32613;SDS011;19031;51.400;6.770;2023-05-17T11:41:48;4.93;;;0.77;;
32613;SDS011;19031;51.400;6.770;2023-05-17T11:44:29;7.68;;;0.85;;
32613;SDS011;19031;51.400;6.770;2023-05-17T11:49:36;4.57;;;1.30;;
32613;SDS011;19031;51.400;6.770;2023-05-17T11:52:03;2.35;;;1.02;;
32613;SDS011;19031;51.400;6.770;2023-05-17T11:54:29;5.15;;;1.50;;
32613;SDS011;19031;51.400;6.770;2023-05-17T11:56:55;7.43;;;1.08;;
32613;SDS011;19031;51.400;6.770;2023-05-17T11:59:23;5.78;;;1.02;;
32613;SDS011;19031;51.400;6.770;2023-05-17T12:01:49;3.05;;;0.75;;
32613;SDS011;19031;51.400;6.770;2023-05-17T12:04:22;6.55;;;1.52;;
32613;SDS011;19031;51.400;6.770;2023-05-17T12:06:52;5.10;;;0.90;;
32613;SDS011;19031;51.400;6.770;2023-05-17T12:09:19;3.28;;;0.88;;
32613;SDS011;19031;51.400;6.770;2023-05-17T12:11:46;1.83;;;0.65;;
32613;SDS011;19031;51.400;6.770;2023-05-17T12:14:15;3.92;;;1.38;;
32613;SDS011;19031;51.400;6.770;2023-05-17T12:16:52;7.28;;;1.00;;
32613;SDS011;19031;51.400;6.770;2023-05-17T12:19:22;5.15;;;1.35;;
32613;SDS011;19031;51.400;6.770;2023-05-17T12:21:53;9.30;;;1.08;;
32613;SDS011;19031;51.400;6.770;2023-05-17T12:24:35;5.78;;;1.02;;
32613;SDS011;19031;51.400;6.770;2023-05-17T12:27:01;3.67;;;1.15;;
32613;SDS011;19031;51.400;6.770;2023-05-17T12:29:28;3.47;;;0.90;;
32613;SDS011;19031;51.400;6.770;2023-05-17T12:31:54;3.95;;;1.02;;
32613;SDS011;19031;51.400;6.770;2023-05-17T12:34:20;3.25;;;0.77;;
32613;SDS011;19031;51.400;6.770;2023-05-17T12:36:47;5.82;;;1.38;;
32613;SDS011;19031;51.400;6.770;2023-05-17T12:39:13;2.28;;;0.80;;
32613;SDS011;19031;51.400;6.770;2023-05-17T12:41:39;5.80;;;1.10;;
32613;SDS011;19031;51.400;6.770;2023-05-17T12:44:06;2.35;;;0.60;;
32613;SDS011;19031;51.400;6.770;2023-05-17T12:46:32;2.53;;;0.95;;
32613;SDS011;19031;51.400;6.770;2023-05-17T12:49:05;5.07;;;1.17;;
32613;SDS011;19031;51.400;6.770;2023-05-17T12:51:43;6.38;;;1.13;;
32613;SDS011;19031;51.400;6.770;2023-05-17T12:54:11;5.63;;;1.33;;
32613;SDS011;19031;51.400;6.770;2023-05-17T12:56:43;7.85;;;1.60;;
32613;SDS011;19031;51.400;6.770;2023-05-17T13:01:37;4.10;;;1.50;;
32613;SDS011;19031;51.400;6.770;2023-05-17T13:04:06;5.40;;;0.90;;
32613;SDS011;19031;51.400;6.770;2023-05-17T13:06:48;3.08;;;0.70;;
32613;SDS011;19031;51.400;6.770;2023-05-17T13:09:21;8.82;;;1.40;;
32613;SDS011;19031;51.400;6.770;2023-05-17T13:11:56;5.30;;;0.93;;
32613;SDS011;19031;51.400;6.770;2023-05-17T13:17:07;6.65;;;1.13;;
32613;SDS011;19031;51.400;6.770;2023-05-17T13:19:34;3.60;;;1.00;;
32613;SDS011;19031;51.400;6.770;2023-05-17T13:22:01;2.83;;;1.10;;
32613;SDS011;19031;51.400;6.770;2023-05-17T13:24:32;6.47;;;1.00;;
32613;SDS011;19031;51.400;6.770;2023-05-17T13:26:59;3.38;;;1.05;;
32613;SDS011;19031;51.400;6.770;2023-05-17T13:29:25;1.95;;;0.82;;
32613;SDS011;19031;51.400;6.770;2023-05-17T13:31:51;3.10;;;0.65;;
32613;SDS011;19031;51.400;6.770;2023-05-17T13:34:17;6.03;;;1.25;;
32613;SDS011;19031;51.400;6.770;2023-05-17T13:36:45;3.63;;;0.60;;
32613;SDS011;19031;51.400;6.770;2023-05-17T13:39:10;5.40;;;0.93;;
32613;SDS011;19031;51.400;6.770;2023-05-17T13:41:36;3.97;;;0.77;;
32613;SDS011;19031;51.400;6.770;2023-05-17T13:44:02;2.28;;;0.60;;
32613;SDS011;19031;51.400;6.770;2023-05-17T13:46:28;2.25;;;0.85;;
32613;SDS011;19031;51.400;6.770;2023-05-17T13:48:54;3.70;;;0.80;;
32613;SDS011;19031;51.400;6.770;2023-05-17T13:51:19;4.20;;;0.55;;
32613;SDS011;19031;51.400;6.770;2023-05-17T13:53:45;3.33;;;0.95;;
32613;SDS011;19031;51.400;6.770;2023-05-17T13:56:11;2.80;;;0.60;;
32613;SDS011;19031;51.400;6.770;2023-05-17T13:58:36;2.78;;;1.10;;
32613;SDS011;19031;51.400;6.770;2023-05-17T14:01:02;6.90;;;1.30;;
32613;SDS011;19031;51.400;6.770;2023-05-17T14:03:28;6.07;;;1.40;;
32613;SDS011;19031;51.400;6.770;2023-05-17T14:05:54;1.77;;;1.10;;
32613;SDS011;19031;51.400;6.770;2023-05-17T14:08:19;1.77;;;0.65;;
32613;SDS011;19031;51.400;6.770;2023-05-17T14:10:45;2.22;;;0.90;;
32613;SDS011;19031;51.400;6.770;2023-05-17T14:13:11;3.65;;;0.85;;
32613;SDS011;19031;51.400;6.770;2023-05-17T14:15:37;4.80;;;1.10;;
32613;SDS011;19031;51.400;6.770;2023-05-17T14:18:04;3.90;;;1.02;;
32613;SDS011;19031;51.400;6.770;2023-05-17T14:20:31;5.38;;;1.08;;
32613;SDS011;19031;51.400;6.770;2023-05-17T14:22:57;4.13;;;0.82;;
32613;SDS011;19031;51.400;6.770;2023-05-17T14:25:23;4.75;;;1.17;;
32613;SDS011;19031;51.400;6.770;2023-05-17T14:27:48;4.50;;;0.77;;
32613;SDS011;19031;51.400;6.770;2023-05-17T14:30:14;2.80;;;0.82;;
32613;SDS011;19031;51.400;6.770;2023-05-17T14:32:40;5.55;;;1.25;;
32613;SDS011;19031;51.400;6.770;2023-05-17T14:35:06;3.35;;;0.82;;
32613;SDS011;19031;51.400;6.770;2023-05-17T14:37:33;5.85;;;1.10;;
32613;SDS011;19031;51.400;6.770;2023-05-17T14:39:59;7.55;;;0.90;;
32613;SDS011;19031;51.400;6.770;2023-05-17T14:42:25;2.83;;;0.90;;
32613;SDS011;19031;51.400;6.770;2023-05-17T14:44:51;2.58;;;0.80;;
32613;SDS011;19031;51.400;6.770;2023-05-17T14:47:17;3.03;;;0.82;;
32613;SDS011;19031;51.400;6.770;2023-05-17T14:49:45;7.38;;;1.00;;
32613;SDS011;19031;51.400;6.770;2023-05-17T14:52:10;4.07;;;0.90;;
32613;SDS011;19031;51.400;6.770;2023-05-17T14:54:37;2.15;;;0.68;;
32613;SDS011;19031;51.400;6.770;2023-05-17T14:57:03;4.50;;;1.13;;
32613;SDS011;19031;51.400;6.770;2023-05-17T14:59:30;3.88;;;0.98;;
32613;SDS011;19031;51.400;6.770;2023-05-17T15:01:55;2.58;;;0.88;;
32613;SDS011;19031;51.400;6.770;2023-05-17T15:04:30;4.72;;;0.98;;
32613;SDS011;19031;51.400;6.770;2023-05-17T15:06:59;5.35;;;1.25;;
32613;SDS011;19031;51.400;6.770;2023-05-17T15:09:39;5.13;;;1.25;;
32613;SDS011;19031;51.400;6.770;2023-05-17T15:12:32;2.83;;;0.63;;
32613;SDS011;19031;51.400;6.770;2023-05-17T15:14:57;3.95;;;1.02;;
32613;SDS011;19031;51.400;6.770;2023-05-17T15:17:23;3.70;;;0.55;;
32613;SDS011;19031;51.400;6.770;2023-05-17T15:19:49;3.47;;;0.90;;
32613;SDS011;19031;51.400;6.770;2023-05-17T15:22:15;5.10;;;1.30;;
32613;SDS011;19031;51.400;6.770;2023-05-17T15:24:41;3.95;;;0.73;;
32613;SDS011;19031;51.400;6.770;2023-05-17T15:27:07;2.85;;;0.75;;